Time;durP1;ratioP1;P1;durP2;ratioP2;P2;SDS_P1;SDS_P2;PMS_P1;PMS_P2;Temp;Humidity;BMP_temperature;BMP_pressure;BME280_temperature;BME280_humidity;BME280_pressure;Samples;Min_cycle;Max_cycle;Signal;HPM_P1;HPM_P2
2022/12/16 00:02:49;;;;;;;34.40;22.70;;;;;;;4.73;81.41;100338.67;1627379;88;21191;-79
2022/12/16 00:05:56;;;;;;;36.83;21.93;;;;;;;4.70;81.33;100344.35;1641492;87;21251;-79
2022/12/16 00:09:01;;;;;;;34.45;21.77;;;;;;;4.68;81.79;100342.29;1641881;87;21216;-79
2022/12/16 00:12:08;;;;;;;38.65;22.30;;;;;;;4.69;81.99;100345.85;1640808;87;21286;-78
2022/12/16 00:15:01;;;;;;;37.30;22.17;;;;;;;4.65;82.08;100345.77;1641381;87;21248;-77
2022/12/16 00:18:07;;;;;;;31.37;20.17;;;;;;;4.67;82.24;100334.31;1626080;88;21211;-77
2022/12/16 00:21:13;;;;;;;32.53;20.60;;;;;;;4.49;82.56;100340.88;1642338;87;21185;-77
2022/12/16 00:24:18;;;;;;;34.60;19.98;;;;;;;4.48;83.14;100336.45;1642339;87;21216;-77
2022/12/16 00:27:23;;;;;;;37.45;21.30;;;;;;;4.36;83.82;100332.47;1642368;87;21774;-77
2022/12/16 00:30:29;;;;;;;32.75;19.82;;;;;;;4.34;83.65;100338.53;1641962;87;21228;-78
2022/12/16 00:33:35;;;;;;;37.28;22.60;;;;;;;4.12;84.41;100348.67;1642647;87;21200;-77
2022/12/16 00:36:41;;;;;;;34.53;22.20;;;;;;;4.17;84.85;100365.37;1642859;87;21204;-78
2022/12/16 00:39:48;;;;;;;31.17;19.40;;;;;;;4.22;84.88;100357.70;1641837;87;21746;-79
2022/12/16 00:42:54;;;;;;;30.12;20.23;;;;;;;4.21;85.40;100372.23;1627356;88;21192;-78
2022/12/16 00:45:58;;;;;;;32.38;21.42;;;;;;;4.23;85.80;100383.27;1641499;87;21797;-77
2022/12/16 00:49:03;;;;;;;29.12;19.60;;;;;;;4.02;86.48;100382.45;1642677;87;21244;-77
2022/12/16 00:52:09;;;;;;;35.38;23.12;;;;;;;4.01;87.08;100388.86;1642874;87;21204;-77
2022/12/16 00:55:15;;;;;;;33.73;21.75;;;;;;;3.98;87.19;100389.12;1642623;87;21229;-78
2022/12/16 00:58:23;;;;;;;37.25;24.00;;;;;;;4.00;87.45;100399.30;1642788;87;21181;-75
2022/12/16 01:01:29;;;;;;;34.30;22.32;;;;;;;4.21;87.36;100403.37;1642774;87;21193;-76
2022/12/16 01:04:35;;;;;;;35.70;22.40;;;;;;;4.14;87.36;100397.64;1627516;88;21797;-79
2022/12/16 01:07:39;;;;;;;37.93;21.95;;;;;;;4.40;87.18;100395.35;1642590;87;21224;-79
2022/12/16 01:10:45;;;;;;;38.23;23.73;;;;;;;4.33;86.81;100381.50;1612955;88;21252;-79
2022/12/16 01:13:53;;;;;;;36.25;23.10;;;;;;;4.23;86.37;100371.59;1642670;87;21769;-76
2022/12/16 01:16:57;;;;;;;30.68;19.67;;;;;;;4.10;86.84;100362.35;1642874;87;21189;-77
2022/12/16 01:20:03;;;;;;;37.05;21.90;;;;;;;4.18;86.40;100356.25;1642860;87;21671;-77
2022/12/16 01:23:08;;;;;;;38.92;24.67;;;;;;;3.90;86.91;100349.67;1642781;87;21197;-79
2022/12/16 01:26:14;;;;;;;35.83;23.07;;;;;;;3.75;87.46;100354.55;1631686;86;21254;-79
2022/12/16 01:29:20;;;;;;;36.85;21.33;;;;;;;3.68;87.51;100344.77;1662114;86;21218;-77
2022/12/16 01:32:25;;;;;;;40.92;21.97;;;;;;;3.63;87.90;100336.19;1663431;86;21170;-79
2022/12/16 01:35:31;;;;;;;39.13;22.35;;;;;;;3.62;87.79;100331.74;1661777;86;21222;-76
2022/12/16 01:38:38;;;;;;;38.35;22.62;;;;;;;3.65;87.84;100322.03;1656434;86;21203;-78
2022/12/16 01:41:44;;;;;;;31.93;19.82;;;;;;;3.85;87.52;100316.23;1634771;88;21242;-79
2022/12/16 01:44:53;;;;;;;34.85;22.70;;;;;;;3.71;87.62;100317.43;1648518;86;21230;-77
2022/12/16 01:48:00;;;;;;;38.20;22.85;;;;;;;3.62;87.79;100331.74;1662976;86;21210;-76
2022/12/16 01:51:04;;;;;;;37.17;23.22;;;;;;;3.66;87.44;100325.09;1634923;88;21195;-77
2022/12/16 01:53:59;;;;;;;34.20;20.35;;;;;;;3.58;87.50;100327.61;1636046;88;21246;-78
2022/12/16 01:57:09;;;;;;;;;;;;;;;3.51;88.22;100338.08;1638687;87;21202;-79
2022/12/16 02:00:08;;;;;;;37.30;22.42;;;;;;;3.41;88.41;100343.05;1635646;88;20240;-77
2022/12/16 02:03:12;;;;;;;39.13;23.50;;;;;;;3.30;89.35;100362.39;1620540;88;21198;-79
2022/12/16 02:06:18;;;;;;;34.18;21.97;;;;;;;3.52;89.59;100372.24;1636195;88;21810;-79
2022/12/16 02:09:25;;;;;;;35.40;22.90;;;;;;;3.69;89.19;100388.41;1635424;88;21249;-80
2022/12/16 02:12:54;;;;;;;37.93;23.60;;;;;;;3.63;89.91;100388.94;1638034;86;21229;-78
2022/12/16 02:16:26;;;;;;;41.02;21.75;;;;;;;3.74;89.86;100402.40;1661782;86;21771;-76
2022/12/16 02:19:48;;;;;;;36.42;22.17;;;;;;;3.97;89.51;100386.91;1662361;86;21278;-77
2022/12/16 02:23:24;;;;;;;36.48;21.37;;;;;;;4.01;88.39;100350.97;1661831;86;21262;-78
2022/12/16 02:26:54;;;;;;;33.18;21.23;;;;;;;3.98;88.42;100339.05;1663084;86;21791;-77
2022/12/16 02:30:42;;;;;;;35.83;21.97;;;;;;;4.01;87.61;100345.55;1645584;86;21212;-79
2022/12/16 02:34:20;;;;;;;39.70;23.17;;;;;;;3.98;87.46;100352.58;1630673;87;21267;-77
2022/12/16 02:37:55;;;;;;;34.90;22.20;;;;;;;4.00;87.55;100357.34;1620435;88;21386;-78
2022/12/16 02:41:15;;;;;;;37.33;21.95;;;;;;;3.89;87.68;100373.17;1619437;88;21260;-78
2022/12/16 02:44:22;;;;;;;37.20;22.35;;;;;;;3.90;88.09;100387.55;1620748;88;21827;-77
2022/12/16 02:47:21;;;;;;;38.40;22.40;;;;;;;3.93;87.95;100399.48;1610157;89;21706;-78
2022/12/16 02:50:39;;;;;;;32.55;21.77;;;;;;;4.17;87.19;100393.80;1619423;88;21219;-80
2022/12/16 02:53:46;;;;;;;33.95;21.95;;;;;;;4.24;86.53;100381.45;1620484;88;21228;-80
2022/12/16 02:57:10;;;;;;;35.70;22.45;;;;;;;4.24;86.61;100374.19;1620531;88;21762;-78
2022/12/16 03:00:21;;;;;;;37.90;21.12;;;;;;;4.28;86.62;100364.80;1619857;88;21307;-77
2022/12/16 03:03:31;;;;;;;29.50;19.23;;;;;;;4.44;85.96;100364.30;1620614;88;21556;-78
2022/12/16 03:06:36;;;;;;;35.40;22.15;;;;;;;4.30;85.71;100367.38;1647043;87;21201;-77
2022/12/16 03:09:43;;;;;;;34.85;21.85;;;;;;;4.25;85.16;100386.73;1636209;88;21263;-79
2022/12/16 03:12:49;;;;;;;41.08;22.80;;;;;;;4.16;85.45;100411.03;1646832;87;21212;-78
2022/12/16 03:15:55;;;;;;;31.42;20.00;;;;;;;4.16;85.62;100418.66;1646950;87;21269;-79
2022/12/16 03:19:02;;;;;;;39.18;22.48;;;;;;;4.24;85.93;100412.09;1647032;87;21264;-79
2022/12/16 03:22:24;;;;;;;34.38;21.68;;;;;;;4.28;85.80;100415.38;1646954;87;21192;-77
2022/12/16 03:25:30;;;;;;;34.35;21.45;;;;;;;4.40;85.36;100408.04;1646939;87;21264;-77
2022/12/16 03:28:57;;;;;;;31.52;20.37;;;;;;;4.31;85.36;100389.39;1651150;86;21255;-77
2022/12/16 03:32:06;;;;;;;34.35;21.55;;;;;;;4.15;85.98;100373.64;1669354;85;21796;-77
2022/12/16 03:35:37;;;;;;;35.73;22.95;;;;;;;4.19;85.41;100395.39;1676613;85;21248;-78
2022/12/16 03:38:36;;;;;;;32.95;22.00;;;;;;;4.28;84.84;100436.56;1657953;86;21716;-78
2022/12/16 03:41:41;;;;;;;30.77;20.80;;;;;;;4.60;84.35;100473.51;1692573;85;21204;-80
2022/12/16 03:44:49;;;;;;;33.20;21.33;;;;;;;4.65;84.58;100479.38;1691122;85;21208;-79
2022/12/16 03:47:58;;;;;;;41.45;24.37;;;;;;;4.65;84.73;100461.77;1691026;85;21709;-79
2022/12/16 03:51:04;;;;;;;37.75;23.07;;;;;;;4.70;85.09;100467.64;1690866;85;21196;-80
2022/12/16 03:54:10;;;;;;;35.10;22.15;;;;;;;4.78;84.79;100475.11;1664307;86;21223;-78
2022/12/16 03:57:15;;;;;;;36.68;22.52;;;;;;;4.86;84.39;100468.02;1663367;86;21203;-76
2022/12/16 04:00:21;;;;;;;34.53;21.55;;;;;;;4.76;84.29;100462.20;1663203;85;21788;-78
2022/12/16 04:03:27;;;;;;;31.05;19.77;;;;;;;4.61;84.06;100449.02;1664440;86;21157;-78
2022/12/16 04:06:33;;;;;;;33.02;21.37;;;;;;;4.62;83.70;100437.67;1664496;86;21196;-77
2022/12/16 04:09:33;;;;;;;37.10;24.43;;;;;;;4.53;83.69;100449.32;1664325;86;21208;-76
2022/12/16 04:26:20;;;;;;;32.30;20.60;;;;;;;4.36;84.70;100474.65;1664517;86;21184;-78
2022/12/16 04:29:25;;;;;;;40.15;24.90;;;;;;;4.17;85.43;100469.60;1676843;85;21196;-77
2022/12/16 04:34:24;;;;;;;39.53;22.27;;;;;;;4.11;85.80;100481.81;1676831;85;21244;-76
